createdAt,value
2023-05-15T00:04:12.166Z,44.25
2023-05-15T00:09:34.041Z,44.34
2023-05-15T00:14:55.886Z,44.12
2023-05-15T00:20:17.837Z,44.58
2023-05-15T00:25:39.643Z,44.20
2023-05-15T00:31:01.503Z,44.43
2023-05-15T00:36:24.683Z,44.70
2023-05-15T00:41:48.725Z,44.70
2023-05-15T00:47:11.221Z,44.36
2023-05-15T00:52:33.494Z,44.61
2023-05-15T00:57:57.882Z,44.46
2023-05-15T01:03:20.431Z,44.64
2023-05-15T01:08:50.055Z,44.84
2023-05-15T01:14:11.978Z,44.41
2023-05-15T01:19:34.305Z,44.98
2023-05-15T01:25:27.112Z,44.76
2023-05-15T01:30:50.852Z,44.90
2023-05-15T01:36:21.967Z,44.79
2023-05-15T01:42:00.989Z,44.56
2023-05-15T01:47:35.419Z,44.82
2023-05-15T01:53:01.192Z,44.81
2023-05-15T01:58:25.766Z,45.06
2023-05-15T02:03:48.519Z,44.72
2023-05-15T02:09:11.138Z,45.17
2023-05-15T02:14:37.280Z,45.23
2023-05-15T02:19:59.211Z,45.06
2023-05-15T02:25:30.903Z,44.89
2023-05-15T02:31:01.518Z,44.66
2023-05-15T02:36:30.985Z,44.45
2023-05-15T02:41:53.920Z,44.68
2023-05-15T02:47:16.912Z,44.66
2023-05-15T02:52:38.718Z,44.39
2023-05-15T02:58:00.782Z,44.54
2023-05-15T03:03:22.636Z,44.63
2023-05-15T03:08:45.019Z,44.56
2023-05-15T03:14:06.814Z,44.79
2023-05-15T03:19:28.640Z,44.75
2023-05-15T03:24:50.549Z,44.76
2023-05-15T03:30:12.521Z,44.75
2023-05-15T03:35:34.310Z,44.58
2023-05-15T03:40:56.157Z,44.44
2023-05-15T03:46:17.983Z,44.47
2023-05-15T03:51:39.903Z,44.62
2023-05-15T03:57:01.730Z,44.49
2023-05-15T04:02:23.614Z,44.28
2023-05-15T04:07:45.906Z,44.62
2023-05-15T04:13:07.739Z,44.58
2023-05-15T04:18:29.628Z,44.74
2023-05-15T04:23:51.502Z,44.35
2023-05-15T04:29:13.429Z,44.43
2023-05-15T04:34:35.460Z,44.20
2023-05-15T04:39:57.239Z,44.13
2023-05-15T04:45:19.103Z,44.23
2023-05-15T04:50:40.929Z,44.58
2023-05-15T04:56:02.725Z,44.63
2023-05-15T05:01:24.567Z,44.71
2023-05-15T05:06:49.792Z,44.60
2023-05-15T05:12:11.850Z,44.44
2023-05-15T05:17:33.694Z,44.09
2023-05-15T05:22:55.615Z,44.19
2023-05-15T05:28:17.409Z,44.31
2023-05-15T05:33:39.313Z,44.48
2023-05-15T05:39:01.069Z,44.11
2023-05-15T05:44:22.915Z,44.33
2023-05-15T05:49:48.278Z,44.09
2023-05-15T05:55:10.894Z,44.35
2023-05-15T06:00:33.346Z,43.78
2023-05-15T06:05:55.349Z,43.76
2023-05-15T06:11:17.333Z,44.12
2023-05-15T06:16:39.282Z,43.92
2023-05-15T06:22:01.151Z,43.58
2023-05-15T06:27:25.425Z,44.01
2023-05-15T06:32:47.418Z,43.61
2023-05-15T06:38:09.409Z,43.37
2023-05-15T06:43:31.233Z,43.69
2023-05-15T06:48:53.097Z,43.62
2023-05-15T06:54:14.915Z,43.33
2023-05-15T06:59:36.841Z,43.34
2023-05-15T07:04:58.748Z,43.47
2023-05-15T07:10:20.995Z,43.58
2023-05-15T07:15:42.836Z,43.38
2023-05-15T07:21:05.025Z,43.62
2023-05-15T07:26:32.832Z,44.01
2023-05-15T07:31:58.321Z,43.90
2023-05-15T07:37:20.376Z,43.72
2023-05-15T07:42:44.521Z,43.85
2023-05-15T07:48:16.714Z,43.85
2023-05-15T07:53:38.539Z,43.72
2023-05-15T07:59:00.654Z,43.97
2023-05-15T08:04:22.542Z,43.91
2023-05-15T08:09:44.402Z,43.88
2023-05-15T08:15:06.923Z,43.53
2023-05-15T08:20:28.728Z,43.92
2023-05-15T08:25:50.467Z,44.06
2023-05-15T08:31:12.287Z,43.85
2023-05-15T08:36:34.071Z,43.76
2023-05-15T08:42:03.615Z,43.53
2023-05-15T08:47:28.794Z,43.86
2023-05-15T08:52:51.756Z,44.00
2023-05-15T08:58:13.922Z,43.78
2023-05-15T09:03:35.824Z,44.05
2023-05-15T09:08:59.647Z,43.71
2023-05-15T09:14:21.540Z,43.98
2023-05-15T09:19:43.949Z,44.12
2023-05-15T09:25:06.937Z,43.83
2023-05-15T09:30:31.275Z,43.59
2023-05-15T09:35:53.462Z,43.58
2023-05-15T09:41:15.416Z,43.78
2023-05-15T09:46:37.760Z,44.02
2023-05-15T09:52:00.829Z,44.00
2023-05-15T09:57:23.664Z,43.82
2023-05-15T10:02:46.459Z,43.81
2023-05-15T10:08:08.326Z,44.10
2023-05-15T10:13:31.954Z,43.85
2023-05-15T10:18:53.915Z,43.59
2023-05-15T10:24:16.889Z,43.76
2023-05-15T10:29:39.095Z,43.81
2023-05-15T10:35:01.351Z,43.49
2023-05-15T10:40:24.737Z,43.88
2023-05-15T10:45:47.766Z,43.41
2023-05-15T10:51:24.285Z,43.41
2023-05-15T10:56:46.142Z,43.44
2023-05-15T11:02:29.643Z,43.80
2023-05-15T11:08:16.211Z,43.70
2023-05-15T11:14:02.664Z,43.58
2023-05-15T11:19:54.689Z,43.90
2023-05-15T11:25:17.030Z,43.94
2023-05-15T11:30:40.200Z,43.62
2023-05-15T11:36:05.578Z,43.87
2023-05-15T11:41:32.266Z,43.81
2023-05-15T11:46:54.410Z,43.73
2023-05-15T11:52:16.662Z,43.82
2023-05-15T11:57:38.740Z,43.93
2023-05-15T12:03:00.633Z,43.63
2023-05-15T12:08:22.485Z,44.02
2023-05-15T12:13:44.308Z,43.83
2023-05-15T12:19:06.712Z,44.14
2023-05-15T12:24:29.103Z,43.92
2023-05-15T12:29:51.097Z,44.34
2023-05-15T12:35:13.105Z,43.94
2023-05-15T12:40:37.019Z,44.04
2023-05-15T12:45:59.309Z,44.25
2023-05-15T12:51:22.930Z,44.07
2023-05-15T12:56:44.894Z,43.84
2023-05-15T13:02:11.369Z,44.19
2023-05-15T13:07:34.085Z,44.46
2023-05-15T13:12:57.155Z,44.34
2023-05-15T13:18:19.028Z,44.25
2023-05-15T13:23:41.155Z,44.37
2023-05-15T13:29:03.166Z,44.01
2023-05-15T13:34:24.978Z,44.48
2023-05-15T13:39:46.889Z,43.98
2023-05-15T13:45:11.503Z,43.86
2023-05-15T13:50:33.448Z,44.24
2023-05-15T13:55:55.330Z,43.98
2023-05-15T14:01:17.269Z,44.16
2023-05-15T14:06:39.185Z,43.84
2023-05-15T14:12:01.064Z,43.65
2023-05-15T14:17:23.592Z,43.75
2023-05-15T14:22:45.480Z,43.46
2023-05-15T14:28:07.307Z,43.81
2023-05-15T14:33:29.168Z,43.76
2023-05-15T14:38:51.006Z,43.60
2023-05-15T14:44:12.836Z,43.41
2023-05-15T14:49:36.059Z,43.44
2023-05-15T14:55:08.698Z,43.28
2023-05-15T15:00:31.614Z,43.22
2023-05-15T15:05:53.397Z,43.09
2023-05-15T15:11:15.563Z,42.87
2023-05-15T15:16:37.339Z,43.11
2023-05-15T15:21:59.254Z,43.55
2023-05-15T15:27:21.073Z,43.74
2023-05-15T15:32:44.999Z,43.41
2023-05-15T15:38:06.805Z,43.33
2023-05-15T15:43:28.569Z,43.42
2023-05-15T15:48:50.395Z,43.68
2023-05-15T15:54:12.252Z,43.19
2023-05-15T15:59:34.182Z,43.48
2023-05-15T16:04:55.970Z,43.98
2023-05-15T16:10:17.980Z,44.17
2023-05-15T16:15:39.831Z,45.15
2023-05-15T16:21:01.918Z,45.75
2023-05-15T16:26:24.132Z,45.78
2023-05-15T16:31:47.205Z,46.47
2023-05-15T16:37:09.153Z,46.15
2023-05-15T16:42:35.939Z,46.13
2023-05-15T16:47:58.390Z,46.13
2023-05-15T16:53:20.893Z,46.46
2023-05-15T16:58:43.119Z,46.45
2023-05-15T17:04:05.124Z,46.92
2023-05-15T17:09:27.084Z,45.65
2023-05-15T17:14:49.074Z,45.15
2023-05-15T17:20:11.996Z,45.37
2023-05-15T17:25:33.941Z,45.09
2023-05-15T17:30:55.774Z,44.97
2023-05-15T17:36:17.562Z,44.67
2023-05-15T17:41:39.412Z,44.74
2023-05-15T17:47:01.365Z,44.51
2023-05-15T17:52:23.325Z,44.27
2023-05-15T17:57:45.100Z,44.06
2023-05-15T18:03:07.045Z,44.10
2023-05-15T18:08:28.916Z,43.76
2023-05-15T18:13:50.862Z,43.74
2023-05-15T18:19:13.322Z,44.20
2023-05-15T18:24:35.331Z,43.86
2023-05-15T18:29:57.362Z,43.93
2023-05-15T18:35:19.233Z,44.01
2023-05-15T18:40:41.077Z,43.38
2023-05-15T18:46:04.190Z,42.82
2023-05-15T18:51:26.306Z,42.72
2023-05-15T18:56:48.149Z,41.96
2023-05-15T19:02:10.883Z,41.67
2023-05-15T19:07:32.810Z,40.92
2023-05-15T19:12:55.125Z,40.91
2023-05-15T19:18:16.971Z,40.33
2023-05-15T19:23:38.825Z,40.36
2023-05-15T19:29:00.651Z,40.41
2023-05-15T19:34:22.402Z,40.07
2023-05-15T19:39:44.139Z,40.29
2023-05-15T19:45:07.465Z,39.98
2023-05-15T19:50:30.463Z,39.93
2023-05-15T19:55:53.197Z,40.06
2023-05-15T20:01:15.098Z,40.30
2023-05-15T20:06:36.920Z,40.10
2023-05-15T20:11:58.974Z,40.33
2023-05-15T20:17:20.876Z,40.45
2023-05-15T20:22:44.580Z,40.32
2023-05-15T20:28:06.706Z,40.12
2023-05-15T20:33:28.703Z,40.00
2023-05-15T20:38:52.080Z,39.60
2023-05-15T20:44:13.887Z,39.55
2023-05-15T20:49:36.221Z,39.76
2023-05-15T20:54:58.060Z,39.46
2023-05-15T21:00:19.885Z,39.59
2023-05-15T21:05:41.733Z,39.34
2023-05-15T21:11:03.607Z,39.87
2023-05-15T21:16:25.458Z,39.72
2023-05-15T21:21:47.288Z,39.56
2023-05-15T21:27:09.269Z,39.75
2023-05-15T21:32:31.240Z,39.57
2023-05-15T21:37:53.034Z,39.73
2023-05-15T21:43:15.137Z,39.70
2023-05-15T21:48:37.027Z,39.84
2023-05-15T21:53:58.933Z,39.77
2023-05-15T21:59:20.805Z,39.57
2023-05-15T22:04:42.562Z,39.81
2023-05-15T22:10:05.484Z,39.46
2023-05-15T22:15:27.322Z,39.94
2023-05-15T22:20:49.163Z,39.72
2023-05-15T22:26:11.212Z,39.72
2023-05-15T22:31:33.054Z,39.64
2023-05-15T22:36:55.788Z,39.66
2023-05-15T22:42:18.802Z,39.24
2023-05-15T22:47:40.655Z,39.34
2023-05-15T22:53:02.821Z,39.77
2023-05-15T22:58:24.629Z,39.32
2023-05-15T23:03:46.853Z,39.18
2023-05-15T23:09:09.706Z,39.31
2023-05-15T23:14:31.434Z,39.28
2023-05-15T23:19:53.344Z,39.33
2023-05-15T23:25:15.244Z,38.94
2023-05-15T23:30:37.348Z,39.07
2023-05-15T23:35:59.602Z,38.87
2023-05-15T23:41:22.991Z,39.06
2023-05-15T23:46:44.867Z,39.29
2023-05-15T23:52:07.606Z,39.29
2023-05-15T23:57:29.567Z,39.06
